Time;durP1;ratioP1;P1;durP2;ratioP2;P2;SDS_P1;SDS_P2;PMS_P1;PMS_P2;Temp;Humidity;BMP_temperature;BMP_pressure;BME280_temperature;BME280_humidity;BME280_pressure;Samples;Min_cycle;Max_cycle;Signal;HPM_P1;HPM_P2
2022/05/18 00:01:20;;;;;;;;;7.00;7.00;;;;;18.51;68.39;100239.84;5042419;28;9475;-63
2022/05/18 00:03:47;;;;;;;;;6.20;6.20;;;;;18.49;68.49;100236.47;5054950;28;8827;-63
2022/05/18 00:06:15;;;;;;;;;10.00;9.20;;;;;18.46;68.06;100239.50;5042906;28;8825;-63
2022/05/18 00:08:43;;;;;;;;;7.80;7.00;;;;;18.41;68.18;100237.28;5037900;28;8843;-63
2022/05/18 00:11:11;;;;;;;;;6.40;6.40;;;;;18.41;68.20;100245.38;5035868;28;8817;-63
2022/05/18 00:13:38;;;;;;;;;6.80;6.80;;;;;18.40;68.62;100248.25;5035742;28;9447;-63
2022/05/18 00:16:06;;;;;;;;;9.60;8.20;;;;;18.35;68.06;100246.03;5036182;28;8822;-65
2022/05/18 00:18:37;;;;;;;;;11.00;8.40;;;;;18.31;68.79;100250.09;5035448;28;8845;-63
2022/05/18 00:21:05;;;;;;;;;8.60;7.20;;;;;18.26;68.49;100243.44;5043574;28;8839;-63
2022/05/18 00:23:33;;;;;;;;;7.00;6.00;;;;;18.21;68.52;100252.03;5055161;28;8830;-64
2022/05/18 00:26:00;;;;;;;;;8.80;8.60;;;;;18.17;68.89;100256.06;5054997;28;8892;-62
2022/05/18 00:28:28;;;;;;;;;7.00;6.80;;;;;18.16;68.98;100249.00;5045590;28;8824;-63
2022/05/18 00:30:56;;;;;;;;;10.40;7.00;;;;;18.13;68.99;100252.00;5034884;28;8943;-63
2022/05/18 00:33:24;;;;;;;;;9.00;9.00;;;;;18.10;68.95;100241.53;5046769;28;9573;-62
2022/05/18 00:35:51;;;;;;;;;4.60;4.60;;;;;18.07;69.19;100252.63;5035090;28;8837;-62
2022/05/18 00:38:19;;;;;;;;;7.00;6.80;;;;;18.03;68.83;100245.88;5042932;28;8806;-63
2022/05/18 00:40:47;;;;;;;;;6.00;6.00;;;;;18.02;68.62;100249.59;5055011;28;8920;-62
2022/05/18 00:43:15;;;;;;;;;9.00;7.40;;;;;18.02;69.25;100251.44;5051791;28;8947;-62
2022/05/18 00:45:43;;;;;;;;;10.00;9.20;;;;;18.00;69.35;100245.38;5039540;28;8950;-62
2022/05/18 00:48:11;;;;;;;;;7.00;7.00;;;;;18.00;68.71;100248.06;5039335;28;8832;-62
2022/05/18 00:50:38;;;;;;;;;6.00;6.00;;;;;17.99;68.59;100244.50;5040490;28;8882;-62
2022/05/18 00:53:06;;;;;;;;;6.20;6.20;;;;;17.98;68.77;100242.81;5051237;28;8996;-62
2022/05/18 00:55:34;;;;;;;;;6.00;6.00;;;;;18.05;69.02;100245.72;5058478;28;8941;-62
2022/05/18 00:58:02;;;;;;;;;7.00;7.00;;;;;18.11;68.69;100254.00;5058726;28;8830;-62
2022/05/18 01:00:29;;;;;;;;;9.00;7.00;;;;;18.17;68.09;100256.06;5058505;28;8853;-63
2022/05/18 01:02:58;;;;;;;;;5.60;5.60;;;;;18.23;68.42;100260.78;5058768;28;8853;-63
2022/05/18 01:05:25;;;;;;;;;5.20;5.20;;;;;18.24;68.07;100259.81;5058781;28;8973;-62
2022/05/18 01:07:53;;;;;;;;;4.00;4.00;;;;;18.24;68.00;100261.63;5039051;28;8951;-62
2022/05/18 01:10:22;;;;;;;;;8.20;7.40;;;;;18.20;68.04;100261.13;5040206;28;8856;-62
2022/05/18 01:12:50;;;;;;;;;4.00;4.00;;;;;18.15;68.56;100259.94;5039256;28;8824;-63
2022/05/18 01:15:18;;;;;;;;;4.60;4.60;;;;;18.13;68.35;100262.78;5058842;28;8984;-62
2022/05/18 01:17:46;;;;;;;;;6.80;6.80;;;;;18.07;68.64;100251.81;5058218;28;8922;-62
2022/05/18 01:20:14;;;;;;;;;6.80;6.80;;;;;18.01;68.84;100257.84;5057988;28;8845;-63
2022/05/18 01:22:41;;;;;;;;;6.20;6.20;;;;;17.93;68.46;100258.63;5044093;28;9508;-63
2022/05/18 01:25:09;;;;;;;;;4.60;3.40;;;;;17.92;68.93;100258.81;5038482;28;8965;-62
2022/05/18 01:27:37;;;;;;;;;5.60;4.00;;;;;17.87;69.21;100261.13;5043038;28;8834;-63
2022/05/18 01:30:04;;;;;;;;;6.20;5.60;;;;;17.85;68.75;100263.97;5048445;28;8828;-62
2022/05/18 01:32:32;;;;;;;;;6.00;6.00;;;;;17.83;69.22;100263.28;5046524;28;8844;-62
2022/05/18 01:35:00;;;;;;;;;4.00;4.00;;;;;17.76;69.32;100264.13;5040460;28;8842;-62
2022/05/18 01:37:28;;;;;;;;;6.20;6.20;;;;;17.71;68.99;100263.72;5041025;28;8841;-62
2022/05/18 01:39:56;;;;;;;;;6.00;5.60;;;;;17.63;69.50;100269.91;5057993;28;8908;-66
2022/05/18 01:42:24;;;;;;;;;7.00;7.00;;;;;17.56;69.79;100271.56;5056878;28;8965;-62
2022/05/18 01:44:52;;;;;;;;;9.80;7.00;;;;;17.51;69.72;100270.31;5040940;28;8839;-62
2022/05/18 01:47:19;;;;;;;;;6.20;6.20;;;;;17.44;69.53;100275.50;5057958;28;8831;-64
2022/05/18 01:49:47;;;;;;;;;6.40;6.20;;;;;17.38;69.58;100276.13;5058152;28;9000;-62
2022/05/18 01:52:15;;;;;;;;;7.00;6.00;;;;;17.32;69.72;100283.97;5057717;28;8919;-62
2022/05/18 01:54:42;;;;;;;;;8.20;6.40;;;;;17.25;69.80;100281.03;5055015;28;8826;-62
2022/05/18 01:57:10;;;;;;;;;6.20;6.00;;;;;17.20;70.09;100279.81;5057882;28;8810;-62
2022/05/18 01:59:38;;;;;;;;;11.20;9.60;;;;;17.16;70.06;100276.59;5058096;28;8861;-62
2022/05/18 02:02:06;;;;;;;;;6.40;6.20;;;;;17.13;70.18;100287.69;5053030;28;8822;-62
2022/05/18 02:04:33;;;;;;;;;9.40;7.40;;;;;17.09;70.48;100272.81;5057357;28;8840;-63
2022/05/18 02:07:01;;;;;;;;;7.00;7.00;;;;;17.05;70.10;100282.22;5056343;28;9518;-62
2022/05/18 02:09:30;;;;;;;;;6.60;5.60;;;;;16.98;70.31;100275.78;5055365;28;8928;-63
2022/05/18 02:11:57;;;;;;;;;9.25;9.00;;;;;16.96;70.50;100280.47;5044704;28;8848;-67
2022/05/18 02:14:26;;;;;;;;;7.00;7.00;;;;;16.93;70.39;100286.16;5047046;28;8829;-62
2022/05/18 02:16:53;;;;;;;;;8.50;7.25;;;;;16.88;70.85;100277.72;5054262;28;8895;-62
2022/05/18 02:19:23;;;;;;;;;8.20;5.60;;;;;16.84;71.03;100279.00;5053356;28;8844;-63
2022/05/18 02:21:50;;;;;;;;;4.80;4.40;;;;;16.82;70.57;100275.63;5037250;28;8900;-63
2022/05/18 02:24:18;;;;;;;;;6.00;5.00;;;;;16.81;70.57;100276.63;5042881;28;8836;-62
2022/05/18 02:26:46;;;;;;;;;6.00;6.00;;;;;16.84;70.47;100276.31;5057445;28;8838;-62
2022/05/18 02:29:19;;;;;;;;;9.00;9.00;;;;;16.89;70.29;100279.41;5056653;28;8844;-62
2022/05/18 02:31:47;;;;;;;;;7.00;7.00;;;;;16.94;70.38;100281.63;5057285;28;8930;-62
2022/05/18 02:34:15;;;;;;;;;9.00;8.60;;;;;17.00;70.18;100275.63;5057330;28;8982;-62
2022/05/18 02:36:44;;;;;;;;;6.50;6.50;;;;;17.11;69.76;100286.13;5055952;28;8808;-63
2022/05/18 02:39:12;;;;;;;;;11.50;9.75;;;;;17.18;69.66;100273.75;5057337;28;8850;-62
2022/05/18 02:41:41;;;;;;;;;7.00;7.00;;;;;17.28;69.34;100280.75;5055759;28;8835;-62
2022/05/18 02:44:08;;;;;;;;;8.60;8.60;;;;;17.38;69.51;100281.53;5055661;28;8812;-63
2022/05/18 02:46:36;;;;;;;;;6.00;4.40;;;;;17.47;68.85;100279.75;5056082;28;8827;-63
2022/05/18 02:49:06;;;;;;;;;10.00;7.00;;;;;17.55;69.04;100277.09;5056772;28;8957;-62
2022/05/18 02:51:33;;;;;;;;;7.25;6.75;;;;;17.58;69.11;100271.38;5056437;28;8836;-63
2022/05/18 02:54:01;;;;;;;;;4.00;3.75;;;;;17.60;68.78;100275.63;5056342;28;9581;-63
2022/05/18 02:56:28;;;;;;;;;9.00;7.40;;;;;17.63;68.59;100272.59;5056389;28;8927;-62
2022/05/18 02:58:58;;;;;;;;;6.80;6.80;;;;;17.64;68.55;100279.69;5056773;28;8828;-62
2022/05/18 03:01:26;;;;;;;;;8.50;7.00;;;;;17.66;68.47;100280.38;5057031;28;8974;-62
2022/05/18 03:03:53;;;;;;;;;9.00;7.00;;;;;17.66;68.56;100277.69;5056596;28;8917;-62
2022/05/18 03:06:21;;;;;;;;;7.00;7.00;;;;;17.68;68.42;100283.75;5055349;28;8838;-62
2022/05/18 03:08:50;;;;;;;;;11.25;10.75;;;;;17.68;68.79;100275.66;5056814;28;8920;-62
2022/05/18 03:11:19;;;;;;;;;9.00;9.00;;;;;17.69;68.42;100284.59;5055722;28;8832;-62
2022/05/18 03:13:47;;;;;;;;;8.60;7.80;;;;;17.68;68.52;100278.38;5055938;28;8804;-62
2022/05/18 03:16:15;;;;;;;;;9.00;9.00;;;;;17.67;68.80;100276.69;5055521;28;8958;-63
2022/05/18 03:18:43;;;;;;;;;9.50;9.50;;;;;17.66;68.33;100275.00;5056357;28;8851;-63
2022/05/18 03:23:55;;;;;;;;;9.00;7.00;;;;;17.71;68.46;100274.50;5058777;28;8851;-62
2022/05/18 03:26:23;;;;;;;;;9.00;7.80;;;;;17.71;68.75;100283.44;5067776;28;8819;-63
2022/05/18 03:28:51;;;;;;;;;7.80;7.80;;;;;17.72;68.15;100278.88;5066216;28;8831;-62
2022/05/18 03:31:19;;;;;;;;;8.60;7.40;;;;;17.69;68.60;100280.03;5075267;28;8887;-63
2022/05/18 03:33:47;;;;;;;;;9.00;9.00;;;;;17.67;68.51;100290.16;5074602;28;8863;-62
2022/05/18 03:36:15;;;;;;;;;8.20;7.00;;;;;17.67;68.43;100284.75;5074989;28;8832;-63
2022/05/18 03:38:43;;;;;;;;;9.20;9.20;;;;;17.66;68.50;100291.16;5075545;28;8856;-62
2022/05/18 03:41:10;;;;;;;;;9.00;8.60;;;;;17.66;68.42;100280.38;5074623;28;8824;-62
2022/05/18 03:43:38;;;;;;;;;7.00;7.00;;;;;17.67;68.91;100298.22;5069882;28;8834;-62
2022/05/18 03:46:06;;;;;;;;;9.00;9.00;;;;;17.68;68.73;100289.13;5055997;28;8969;-62
2022/05/18 03:48:34;;;;;;;;;9.00;9.00;;;;;17.70;68.48;100292.50;5055919;28;8953;-62
2022/05/18 03:51:02;;;;;;;;;8.60;7.40;;;;;17.72;68.17;100295.91;5055385;28;9574;-62
2022/05/18 03:53:30;;;;;;;;;11.00;9.75;;;;;17.74;69.01;100298.44;5055856;28;8847;-62
2022/05/18 03:55:58;;;;;;;;;7.00;7.00;;;;;17.76;68.71;100299.97;5055816;28;8830;-62
2022/05/18 03:58:26;;;;;;;;;6.00;6.00;;;;;17.79;68.47;100302.38;5057186;28;8839;-62
2022/05/18 04:00:53;;;;;;;;;9.20;8.60;;;;;17.83;68.46;100302.88;5071884;28;8827;-63
2022/05/18 04:03:21;;;;;;;;;9.60;9.20;;;;;17.85;68.40;100304.41;5066597;28;8975;-62
2022/05/18 04:05:49;;;;;;;;;8.20;7.40;;;;;17.86;68.01;100306.09;5055750;28;8834;-63
2022/05/18 04:08:17;;;;;;;;;6.40;6.40;;;;;17.89;67.77;100311.16;5075130;28;8844;-62
2022/05/18 04:10:44;;;;;;;;;10.00;9.20;;;;;17.92;67.79;100312.72;5074352;28;8824;-62
2022/05/18 04:13:12;;;;;;;;;9.60;9.00;;;;;17.94;68.13;100316.94;5074176;28;8812;-62
2022/05/18 04:15:40;;;;;;;;;10.00;9.00;;;;;17.97;68.13;100315.75;5064698;28;8830;-63
2022/05/18 04:18:08;;;;;;;;;10.40;9.20;;;;;17.99;67.90;100319.97;5053730;28;8814;-62
2022/05/18 04:20:36;;;;;;;;;6.00;6.00;;;;;17.99;68.09;100329.94;5055057;28;8846;-63
2022/05/18 04:23:03;;;;;;;;;7.00;7.00;;;;;17.95;68.11;100323.16;5054313;28;8962;-62
2022/05/18 04:25:31;;;;;;;;;6.60;6.60;;;;;17.94;67.87;100326.84;5038976;28;8860;-63
2022/05/18 04:27:59;;;;;;;;;11.20;11.20;;;;;17.89;68.41;100324.66;5034868;28;8842;-62
2022/05/18 04:30:27;;;;;;;;;8.40;7.40;;;;;17.86;67.96;100330.38;5051362;28;8844;-63
2022/05/18 04:32:54;;;;;;;;;7.00;6.00;;;;;17.84;68.46;100332.34;5034890;28;8841;-64
2022/05/18 04:35:22;;;;;;;;;7.40;6.40;;;;;17.83;68.05;100329.84;5035588;28;8959;-63
2022/05/18 04:37:51;;;;;;;;;9.60;8.60;;;;;17.85;68.13;100331.34;5034129;28;8836;-63
2022/05/18 04:40:18;;;;;;;;;9.00;9.00;;;;;17.87;67.91;100339.28;5034724;28;8840;-62
2022/05/18 04:42:46;;;;;;;;;6.40;6.40;;;;;17.91;68.17;100338.78;5054161;28;8838;-64
2022/05/18 04:45:14;;;;;;;;;9.80;9.80;;;;;17.97;67.86;100337.31;5054531;28;8850;-63
2022/05/18 04:47:42;;;;;;;;;6.40;6.00;;;;;18.06;67.70;100337.19;5034995;28;8828;-62
2022/05/18 04:50:10;;;;;;;;;9.00;7.00;;;;;18.17;67.40;100342.34;5034644;28;8832;-62
2022/05/18 04:52:37;;;;;;;;;7.00;7.00;;;;;18.30;67.53;100345.44;5034643;28;8824;-63
2022/05/18 04:55:05;;;;;;;;;8.60;8.60;;;;;18.43;66.88;100345.03;5047231;28;8823;-63
2022/05/18 04:57:33;;;;;;;;;7.80;7.80;;;;;18.57;66.49;100353.34;5037502;28;8873;-62
2022/05/18 05:00:02;;;;;;;;;8.00;7.00;;;;;18.69;66.78;100343.94;5048954;28;8818;-63
2022/05/18 05:02:29;;;;;;;;;7.40;7.00;;;;;18.82;66.26;100351.56;5053093;28;8856;-63
2022/05/18 05:04:59;;;;;;;;;7.00;7.00;;;;;18.90;65.86;100347.03;5054022;28;8818;-63
2022/05/18 05:07:26;;;;;;;;;9.00;8.80;;;;;19.00;65.60;100355.84;5054333;28;8864;-62
2022/05/18 05:09:54;;;;;;;;;7.00;7.00;;;;;19.08;65.76;100358.56;5052507;28;8826;-62
2022/05/18 05:12:22;;;;;;;;;10.20;7.80;;;;;19.17;65.64;100362.97;5054227;28;8845;-65
2022/05/18 05:14:50;;;;;;;;;8.00;7.00;;;;;19.26;65.32;100367.38;5053185;28;8811;-63
2022/05/18 05:17:17;;;;;;;;;9.20;7.60;;;;;19.35;65.43;100366.38;5052302;28;8826;-62
2022/05/18 05:19:45;;;;;;;;;2.20;2.20;;;;;19.43;64.94;100371.78;5046487;28;8941;-63
2022/05/18 05:22:13;;;;;;;;;5.80;5.80;;;;;19.52;64.64;100372.66;5033249;28;8875;-62
2022/05/18 05:24:41;;;;;;;;;7.20;7.20;;;;;19.60;64.26;100381.59;5033869;28;8863;-61
2022/05/18 05:27:09;;;;;;;;;4.80;4.80;;;;;19.70;64.27;100379.56;5032536;28;8820;-62
2022/05/18 05:29:36;;;;;;;;;9.60;7.40;;;;;19.80;63.94;100368.59;5044535;28;8818;-65
2022/05/18 05:32:04;;;;;;;;;4.80;4.40;;;;;19.90;64.26;100372.81;5049356;28;8832;-62
2022/05/18 05:34:32;;;;;;;;;8.80;8.00;;;;;20.00;63.63;100372.59;5036484;28;9609;-62
2022/05/18 05:37:00;;;;;;;;;5.00;5.00;;;;;20.08;63.77;100370.78;5037824;28;8821;-66
2022/05/18 05:39:28;;;;;;;;;4.40;4.40;;;;;20.17;63.26;100372.44;5037871;28;8856;-63
2022/05/18 05:41:58;;;;;;;;;6.60;6.60;;;;;20.27;63.37;100380.38;5036559;28;8836;-62
2022/05/18 05:44:25;;;;;;;;;3.40;3.20;;;;;20.34;63.52;100379.50;5055479;28;8856;-63
2022/05/18 05:46:54;;;;;;;;;7.20;6.40;;;;;20.43;63.25;100370.34;5055483;28;8854;-63
2022/05/18 05:49:21;;;;;;;;;9.80;8.00;;;;;20.53;62.96;100376.41;5055703;28;8888;-63
2022/05/18 05:51:49;;;;;;;;;10.00;8.00;;;;;20.60;62.99;100382.81;5050973;28;9004;-64
2022/05/18 05:54:17;;;;;;;;;7.20;6.20;;;;;20.68;62.45;100374.66;5035476;28;8986;-63
2022/05/18 05:56:45;;;;;;;;;5.80;5.80;;;;;20.75;62.52;100376.47;5035593;28;8860;-63
2022/05/18 05:59:13;;;;;;;;;7.40;7.20;;;;;20.83;62.19;100378.31;5037216;28;8845;-63
2022/05/18 06:01:41;;;;;;;;;7.00;6.60;;;;;20.89;62.21;100374.94;5036102;28;8832;-63
2022/05/18 06:04:10;;;;;;;;;8.00;7.60;;;;;20.98;62.31;100379.28;5035618;28;8875;-63
2022/05/18 06:06:39;;;;;;;;;9.00;8.00;;;;;21.06;62.32;100390.91;5041965;28;8844;-62
2022/05/18 06:09:07;;;;;;;;;8.60;8.00;;;;;21.12;62.21;100382.06;5052617;28;8888;-68
2022/05/18 06:11:36;;;;;;;;;6.60;6.20;;;;;21.21;61.56;100380.16;5044112;28;9808;-63
2022/05/18 06:14:04;;;;;;;;;7.40;7.40;;;;;21.27;61.76;100382.16;5033450;28;8816;-63
2022/05/18 06:16:32;;;;;;;;;9.80;7.80;;;;;21.35;61.52;100382.09;5035898;28;8853;-63
2022/05/18 06:19:01;;;;;;;;;7.00;7.00;;;;;21.44;61.54;100389.13;5053246;28;8828;-63
2022/05/18 06:21:28;;;;;;;;;8.00;7.40;;;;;21.52;61.39;100386.38;5055058;28;9008;-63
2022/05/18 06:23:56;;;;;;;;;8.00;7.80;;;;;21.62;61.26;100384.25;5038310;28;8866;-63
2022/05/18 06:26:24;;;;;;;;;7.60;7.00;;;;;21.72;60.53;100382.19;5035572;28;8983;-63
2022/05/18 06:28:52;;;;;;;;;7.20;6.80;;;;;21.81;60.83;100391.94;5049550;28;8841;-63
2022/05/18 06:31:19;;;;;;;;;2.40;2.00;;;;;21.90;60.91;100382.69;5036218;28;8986;-64
2022/05/18 06:33:47;;;;;;;;;9.00;8.20;;;;;21.99;60.59;100385.16;5052820;28;8886;-63
2022/05/18 06:36:15;;;;;;;;;5.00;5.00;;;;;22.08;59.98;100386.75;5037135;28;8852;-62
2022/05/18 06:38:43;;;;;;;;;6.20;5.40;;;;;22.17;59.94;100387.53;5037505;28;8832;-63
2022/05/18 06:41:23;;;;;;;;;7.60;7.60;;;;;22.25;60.04;100382.00;5035104;28;8832;-63
2022/05/18 06:43:50;;;;;;;;;5.40;5.40;;;;;22.36;59.63;100381.53;5036112;28;8850;-63
2022/05/18 06:46:18;;;;;;;;;7.60;6.00;;;;;22.46;59.84;100387.59;5037691;28;8957;-64
2022/05/18 06:48:46;;;;;;;;;5.80;5.00;;;;;22.55;59.01;100378.31;5037086;28;8856;-63
2022/05/18 06:51:14;;;;;;;;;6.80;6.00;;;;;22.65;58.82;100381.56;5036443;28;8856;-62
2022/05/18 06:53:42;;;;;;;;;8.60;8.20;;;;;22.75;58.63;100379.41;5036484;28;8909;-62
2022/05/18 06:56:10;;;;;;;;;8.00;7.60;;;;;22.85;58.80;100375.34;5055134;28;9036;-68
2022/05/18 06:58:38;;;;;;;;;5.60;5.00;;;;;22.92;58.17;100375.47;5055414;28;8837;-64
2022/05/18 07:01:07;;;;;;;;;7.20;6.80;;;;;23.00;58.47;100375.34;5055238;28;8850;-64
2022/05/18 07:03:35;;;;;;;;;3.80;3.80;;;;;23.09;58.29;100375.06;5055038;28;8823;-63
2022/05/18 07:06:03;;;;;;;;;8.80;8.20;;;;;23.18;58.13;100379.38;5056032;28;8927;-63
2022/05/18 07:08:31;;;;;;;;;8.00;7.00;;;;;23.25;57.72;100379.44;5053955;28;8822;-63
2022/05/18 07:10:59;;;;;;;;;6.00;6.00;;;;;23.34;57.69;100383.69;5052490;28;9503;-62
2022/05/18 07:13:27;;;;;;;;;5.00;4.40;;;;;23.42;57.51;100380.84;5054939;28;8830;-65
2022/05/18 07:15:54;;;;;;;;;5.20;5.20;;;;;23.49;57.51;100379.91;5055437;28;8838;-63
2022/05/18 07:18:22;;;;;;;;;4.80;2.60;;;;;23.56;57.20;100379.97;5052796;28;9887;-64
2022/05/18 07:20:50;;;;;;;;;2.60;2.60;;;;;23.64;57.05;100379.81;5036291;28;9003;-63
2022/05/18 07:23:18;;;;;;;;;6.00;6.00;;;;;23.70;56.91;100381.78;5045319;28;8924;-62
2022/05/18 07:25:46;;;;;;;;;6.60;6.00;;;;;23.77;56.48;100382.69;5050420;28;8866;-64
2022/05/18 07:28:14;;;;;;;;;7.80;6.20;;;;;23.80;57.00;100374.97;5052869;28;8826;-62
2022/05/18 07:30:49;;;;;;;;;9.80;6.40;;;;;23.86;56.69;100379.66;5054944;28;8826;-62
2022/05/18 07:33:17;;;;;;;;;6.60;6.60;;;;;23.94;56.38;100378.66;5054059;28;8826;-63
2022/05/18 07:35:45;;;;;;;;;7.20;6.60;;;;;24.01;56.28;100382.28;5054489;28;9546;-63
2022/05/18 07:38:13;;;;;;;;;7.00;6.00;;;;;24.11;55.77;100377.34;5052984;28;8962;-64
2022/05/18 07:41:00;;;;;;;;;6.20;6.00;;;;;24.21;56.16;100380.56;5053755;28;9504;-63
2022/05/18 07:43:28;;;;;;;;;6.40;5.80;;;;;24.28;55.58;100382.28;5052946;28;8858;-63
2022/05/18 07:45:56;;;;;;;;;5.60;5.00;;;;;24.38;55.91;100384.66;5053083;28;8827;-63
2022/05/18 07:48:24;;;;;;;;;6.20;6.00;;;;;24.49;55.69;100386.84;5054131;28;8848;-63
2022/05/18 07:50:52;;;;;;;;;4.60;4.60;;;;;24.57;55.34;100378.53;5053715;28;8989;-63
2022/05/18 07:53:19;;;;;;;;;6.00;6.00;;;;;24.69;55.25;100382.34;5052368;28;8876;-63
2022/05/18 07:55:47;;;;;;;;;6.20;6.20;;;;;24.76;54.62;100389.53;5054203;28;8846;-62
2022/05/18 07:58:15;;;;;;;;;9.00;7.40;;;;;24.84;55.01;100385.78;5054045;28;8945;-62
2022/05/18 08:00:43;;;;;;;;;6.00;6.00;;;;;24.93;54.82;100390.00;5053726;28;8901;-63
2022/05/18 08:03:12;;;;;;;;;7.60;7.60;;;;;25.01;54.17;100382.50;5054104;28;8835;-63
2022/05/18 08:05:40;;;;;;;;;6.40;6.40;;;;;25.10;54.41;100377.72;5053281;28;9619;-63
2022/05/18 08:08:09;;;;;;;;;8.20;7.00;;;;;25.19;54.03;100376.50;5052827;28;8838;-63
2022/05/18 08:16:10;;;;;;;;;6.00;6.00;;;;;25.42;53.39;100380.59;5053795;28;8862;-63
2022/05/18 08:18:38;;;;;;;;;6.00;5.80;;;;;25.48;53.31;100384.38;5042818;28;8931;-63
2022/05/18 08:21:06;;;;;;;;;6.20;6.00;;;;;25.57;53.68;100385.84;5033493;28;8894;-63
2022/05/18 08:23:33;;;;;;;;;6.60;5.80;;;;;25.63;53.05;100380.41;5033694;28;9560;-63
2022/05/18 08:26:03;;;;;;;;;6.40;6.00;;;;;25.69;52.96;100382.31;5053198;28;8855;-63
2022/05/18 08:28:31;;;;;;;;;6.00;6.00;;;;;25.82;52.60;100387.78;5053548;28;8850;-63
2022/05/18 08:30:59;;;;;;;;;5.60;5.40;;;;;25.93;52.76;100379.84;5052925;28;8843;-63
2022/05/18 08:33:28;;;;;;;;;7.00;7.00;;;;;26.05;52.71;100383.59;5053093;28;8990;-63
2022/05/18 08:35:55;;;;;;;;;7.40;6.20;;;;;26.17;52.15;100387.38;5052032;28;8856;-64
2022/05/18 08:38:23;;;;;;;;;5.20;5.20;;;;;26.29;51.77;100382.13;5053054;28;8879;-63
2022/05/18 08:40:51;;;;;;;;;5.80;5.80;;;;;26.40;51.69;100390.50;5054086;28;8812;-64
2022/05/18 08:43:21;;;;;;;;;3.20;3.20;;;;;26.49;51.34;100386.50;5053870;28;8955;-65
2022/05/18 08:45:50;;;;;;;;;6.40;6.20;;;;;26.60;51.37;100385.88;5054160;28;8843;-63
2022/05/18 08:48:18;;;;;;;;;4.00;4.00;;;;;26.72;50.99;100378.69;5053126;28;8816;-63
2022/05/18 08:50:46;;;;;;;;;3.20;2.40;;;;;26.83;50.91;100388.97;5052177;28;8981;-63
2022/05/18 08:53:14;;;;;;;;;7.20;6.00;;;;;26.89;51.13;100387.25;5052167;28;9469;-64
2022/05/18 08:55:42;;;;;;;;;5.20;3.60;;;;;26.96;51.14;100386.19;5051378;28;8958;-62
2022/05/18 08:58:10;;;;;;;;;6.00;5.20;;;;;27.02;50.96;100390.78;5051677;28;8827;-63
2022/05/18 09:00:38;;;;;;;;;4.40;4.40;;;;;27.08;50.90;100392.66;5052260;28;8819;-63
2022/05/18 09:03:06;;;;;;;;;8.00;7.00;;;;;27.14;50.35;100397.28;5053322;28;8828;-64
2022/05/18 09:05:34;;;;;;;;;5.40;5.40;;;;;27.22;50.38;100397.03;5057361;28;8832;-63
2022/05/18 09:08:02;;;;;;;;;4.20;4.20;;;;;27.28;49.70;100393.44;5056832;28;8831;-63
2022/05/18 09:10:30;;;;;;;;;6.00;6.00;;;;;27.34;49.86;100392.56;5057488;28;9639;-63
2022/05/18 09:12:58;;;;;;;;;4.40;4.40;;;;;27.41;49.62;100398.00;5055693;28;8842;-63
2022/05/18 09:15:27;;;;;;;;;5.20;3.80;;;;;27.47;49.88;100395.22;5055937;28;8901;-63
2022/05/18 09:17:55;;;;;;;;;4.00;4.00;;;;;27.56;49.46;100401.28;5055571;28;8832;-63
2022/05/18 09:20:23;;;;;;;;;5.20;5.20;;;;;27.61;48.95;100396.81;5055512;28;8961;-63
2022/05/18 09:22:50;;;;;;;;;5.40;5.40;;;;;27.67;48.76;100397.81;5055718;28;9446;-64
2022/05/18 09:25:18;;;;;;;;;4.80;4.40;;;;;27.72;48.76;100401.59;5055629;28;8842;-62
2022/05/18 09:27:46;;;;;;;;;4.40;3.40;;;;;27.80;48.37;100397.75;5055540;28;9742;-63
2022/05/18 09:30:15;;;;;;;;;5.20;5.00;;;;;27.93;48.60;100390.28;5048539;28;8828;-63
2022/05/18 09:32:43;;;;;;;;;4.40;4.20;;;;;28.09;48.35;100392.50;5036603;28;8828;-63
2022/05/18 09:35:12;;;;;;;;;5.40;5.40;;;;;28.24;47.78;100384.78;5037240;28;9513;-63
2022/05/18 09:37:39;;;;;;;;;5.40;5.00;;;;;28.32;47.73;100384.47;5036676;28;9649;-63
2022/05/18 09:40:07;;;;;;;;;7.00;7.00;;;;;28.45;47.16;100389.03;5036810;28;8871;-63
2022/05/18 09:42:35;;;;;;;;;7.00;7.00;;;;;28.67;46.89;100390.25;5036583;28;8851;-63
2022/05/18 09:45:03;;;;;;;;;3.20;3.20;;;;;28.91;46.43;100384.69;5036130;28;8848;-63
2022/05/18 09:47:32;;;;;;;;;7.20;7.20;;;;;29.21;45.92;100385.59;5036277;28;8836;-63
2022/05/18 09:50:00;;;;;;;;;5.60;4.80;;;;;29.45;45.34;100378.31;5036142;28;8852;-62
2022/05/18 09:52:28;;;;;;;;;3.00;3.00;;;;;29.74;44.75;100383.78;5054005;28;8863;-64
2022/05/18 09:54:55;;;;;;;;;7.40;7.40;;;;;29.98;44.08;100384.69;5056624;28;8838;-62
2022/05/18 09:57:23;;;;;;;;;6.00;6.00;;;;;30.22;43.87;100386.41;5056264;28;8864;-65
2022/05/18 09:59:52;;;;;;;;;6.20;6.00;;;;;30.56;43.83;100380.91;5056153;28;8818;-63
2022/05/18 10:07:52;;;;;;;;;5.00;5.00;;;;;31.72;41.73;100385.91;5035625;28;8836;-63
2022/05/18 10:10:19;;;;;;;;;5.80;5.20;;;;;31.94;42.00;100378.59;5037052;28;8824;-65
2022/05/18 10:12:47;;;;;;;;;4.20;4.20;;;;;32.19;40.91;100373.50;5055786;28;8830;-64
2022/05/18 10:15:16;;;;;;;;;4.40;4.40;;;;;32.44;41.03;100373.94;5052784;28;8822;-63
2022/05/18 10:17:44;;;;;;;;;6.00;6.00;;;;;32.66;41.37;100382.22;5054303;28;8841;-64
2022/05/18 10:20:12;;;;;;;;;5.00;5.00;;;;;32.78;40.90;100385.75;5043461;28;9039;-64
2022/05/18 10:22:40;;;;;;;;;8.60;6.80;;;;;32.79;40.13;100382.75;5053283;28;8830;-68
2022/05/18 10:25:07;;;;;;;;;6.40;5.80;;;;;32.87;40.38;100378.69;5052645;28;8964;-63
2022/05/18 10:27:36;;;;;;;;;5.40;4.80;;;;;33.14;39.91;100374.91;5054781;28;8956;-64
2022/05/18 10:30:04;;;;;;;;;6.60;6.40;;;;;33.51;39.62;100364.06;5055178;28;8961;-64
2022/05/18 10:32:32;;;;;;;;;4.60;4.60;;;;;33.79;39.02;100372.09;5054621;28;8937;-64
2022/05/18 10:35:00;;;;;;;;;5.00;4.00;;;;;34.01;37.98;100362.63;5035855;28;9699;-63
2022/05/18 10:37:29;;;;;;;;;5.00;5.00;;;;;34.19;38.09;100356.66;5035482;28;8875;-64
2022/05/18 10:39:56;;;;;;;;;4.60;4.60;;;;;34.37;38.83;100350.75;5035718;28;9541;-64
2022/05/18 10:42:25;;;;;;;;;6.60;5.60;;;;;34.40;38.28;100360.44;5035943;28;8855;-64
2022/05/18 10:44:53;;;;;;;;;5.00;4.80;;;;;34.38;37.82;100357.97;5035492;28;9470;-63
2022/05/18 10:47:20;;;;;;;;;5.60;5.60;;;;;34.65;37.67;100352.31;5035682;28;8937;-65
2022/05/18 10:49:48;;;;;;;;;4.80;4.80;;;;;34.41;38.57;100360.19;5047397;28;9651;-64
2022/05/18 10:52:16;;;;;;;;;7.60;6.80;;;;;34.16;38.67;100361.91;5038774;28;8844;-63
2022/05/18 10:54:44;;;;;;;;;5.00;5.00;;;;;34.44;37.75;100345.78;5034330;28;8842;-63
2022/05/18 10:57:13;;;;;;;;;7.00;6.20;;;;;34.98;37.32;100344.47;5035179;28;8971;-64
2022/05/18 10:59:42;;;;;;;;;4.40;4.40;;;;;35.12;37.26;100344.78;5034284;28;8926;-69
2022/05/18 11:02:09;;;;;;;;;5.20;5.20;;;;;35.15;37.31;100347.00;5033926;28;8955;-63
2022/05/18 11:04:38;;;;;;;;;6.60;5.80;;;;;35.43;36.03;100347.41;5045536;28;8838;-64
2022/05/18 11:07:06;;;;;;;;;5.20;4.60;;;;;35.78;35.83;100344.72;5054565;28;8972;-64
2022/05/18 11:09:33;;;;;;;;;4.80;4.60;;;;;36.00;35.98;100347.22;5051172;28;8842;-63
2022/05/18 11:12:01;;;;;;;;;5.20;5.20;;;;;35.84;35.86;100343.59;5038738;28;8837;-63
2022/05/18 11:14:29;;;;;;;;;5.00;5.00;;;;;35.78;36.75;100338.34;5039271;28;8842;-63
2022/05/18 11:16:57;;;;;;;;;5.00;5.00;;;;;36.03;36.19;100338.34;5037524;28;8949;-64
2022/05/18 11:19:25;;;;;;;;;6.60;6.20;;;;;36.20;35.20;100332.25;5033469;28;8852;-65
2022/05/18 11:21:52;;;;;;;;;4.40;4.40;;;;;36.54;35.01;100326.91;5053363;28;8866;-63
2022/05/18 11:24:20;;;;;;;;;5.40;5.40;;;;;36.85;34.66;100326.56;5053486;28;9879;-64
2022/05/18 11:26:48;;;;;;;;;4.20;3.40;;;;;36.90;34.48;100329.31;5052736;28;8826;-63
2022/05/18 11:29:17;;;;;;;;;4.40;4.40;;;;;36.86;34.11;100319.88;5052354;28;8919;-63
2022/05/18 11:31:45;;;;;;;;;5.40;4.80;;;;;37.01;33.95;100324.56;5053784;28;8861;-64
2022/05/18 11:34:12;;;;;;;;;4.80;4.40;;;;;37.11;34.16;100316.19;5052483;28;8872;-64
2022/05/18 11:36:40;;;;;;;;;4.20;4.20;;;;;37.21;33.60;100316.97;5053545;28;9657;-63
2022/05/18 11:39:10;;;;;;;;;4.80;4.60;;;;;37.45;33.66;100314.28;5051996;28;8830;-63
2022/05/18 11:41:37;;;;;;;;;6.40;6.40;;;;;37.10;34.46;100309.78;5054061;28;8961;-63
2022/05/18 11:44:06;;;;;;;;;4.20;4.20;;;;;36.61;34.83;100313.59;5054504;28;8838;-63
2022/05/18 11:46:33;;;;;;;;;5.00;5.00;;;;;36.82;34.70;100304.91;5052584;28;8977;-64
2022/05/18 11:49:01;;;;;;;;;5.40;4.80;;;;;37.16;34.91;100316.16;5053243;28;8838;-64
2022/05/18 11:51:29;;;;;;;;;5.80;5.00;;;;;37.13;33.98;100308.38;5042521;28;8881;-68